Goldfield, Nevada Weather observations

Data are for observation ending at time listed.
 Day   Time    Ave.   Ave.  Ave.  Vector   Max.   Stn.    Total    Solar   Ave.  
  of    of     Air    Rel.  Wind   Wind    Wind   Baro.  Precip.   Rad.    Soil  
Year   Day     Temp.  Hum.  Speed  Dir.    Gust   Pres.                    Temp. 
2014   (PST)    F      %     mph   deg.    mph     mb.     in.     W/m2     F   
------------------------------------------------------------------------------
 205   10:50   84.0    14    4.9    14      8.5   830.2    0.00    1009    84.6
 205   11:00   85.1    13    2.4    26      7.6   830.0    0.00    1017    85.2
 205   11:10   86.6    13    3.6   287      8.3   829.8    0.00    1027    85.8
 205   11:20   88.0    12    3.1   252      8.3   829.6    0.00    1033    86.5
 205   11:30   88.2    11    4.1    50      9.3   829.5    0.00    1035    87.1
 205   11:40   88.2    10    2.5    11     10.0   829.4    0.00    1040    87.7
 205   11:50   88.0    11    2.5   355      9.9   829.2    0.00    1042    88.3
 205   12:00   89.4    10    3.3   330      6.5   829.1    0.00    1041    88.9
 205   12:10   90.8     8    6.6   182     12.1   828.9    0.00    1042    89.5
 205   12:20   91.0     8    5.2   134     10.4   828.8    0.00    1038    90.0
 205   12:30   91.3     7    3.3   113     11.0   828.6    0.00    1035    90.5
 205   12:40   90.8     7    5.7   162     10.8   828.5    0.00    1027    91.1
 205   12:50   90.5     7    9.1   135     17.5   828.5    0.00    1018    91.5
 205   13:00   91.1     6    6.1   198     14.2   828.3    0.00    1010    91.9
 205   13:10   91.6     7    8.9   113     18.8   828.2    0.00     993    92.3
 205   13:20   91.5     7    4.9    67     11.9   828.1    0.00     980    92.6
 205   13:30   92.3     6    9.4   132     18.9   827.9    0.00     966    92.7
 205   13:40   91.8     6    8.1   154     19.0   827.9    0.00     951    92.8
 205   13:50   91.9     6    7.5   117     16.9   827.7    0.00     933    92.8
 205   14:00   92.3     6    6.7   121     19.8   827.6    0.00     913    92.8
 205   14:10   92.3     6   10.3   124     20.1   827.5    0.00     892    92.7
 205   14:20   92.5     6    7.8    86     13.1   827.3    0.00     870    92.6
 205   14:30   92.8     5    6.9   148     17.8   827.1    0.00     852    92.6
 205   14:40   93.7     5    9.7   188     16.7   827.0    0.00     828    92.7
 205   14:50   93.1     5    7.1   124     13.7   826.9    0.00     797    92.7
 205   15:00   93.6     4   12.0   156     21.9   826.7    0.00     771    92.9
 205   15:10   94.0     4   12.1   165     19.3   826.6    0.00     744    93.0
 205   15:20   93.6     4   11.7   158     20.6   826.5    0.00     714    93.1
 205   15:30   93.4     4    8.1   156     15.8   826.5    0.00     684    93.1
 205   15:40   93.6     4   11.4   160     21.5   826.4    0.00     654    93.0
 205   15:50   94.4     4   10.7   176     17.5   826.3    0.00     622    93.0
 205   16:00   93.6     4    9.5   160     18.3   826.3    0.00     588    92.9
 205   16:10   93.9     4   12.4   156     20.4   826.3    0.00     555    92.7
 205   16:20   93.7     4   11.3   174     18.9   826.3    0.00     521    92.5
 205   16:30   92.9     4   12.3   159     22.2   826.2    0.00     487    92.3
 205   16:40   93.2     4   12.1   172     18.6   826.1    0.00     452    92.2
 205   16:50   92.9     4   11.6   152     19.7   826.1    0.00     418    91.9
 205   17:00   92.2     5   12.4   155     22.7   826.0    0.00     382    91.8
 205   17:10   92.3     5    8.8   169     15.1   826.0    0.00     348    91.6
 205   17:20   92.3     5   12.0   166     19.4   826.0    0.00     313    91.4
 205   17:30   91.8     5   11.2   153     17.8   826.1    0.00     278    91.3
 205   17:40   91.7     5   10.5   157     17.6   826.1    0.00     244    91.1
 205   17:50   91.4     5    9.8   154     15.3   826.1    0.00     210    90.8
 205   18:00   91.1     5    9.5   152     18.5   826.1    0.00     177    90.7
 205   18:10   90.6     5   10.8   158     17.1   826.1    0.00     148    90.6
 205   18:20   90.2     5    9.4   158     15.1   826.2    0.00     116    90.3
 205   18:30   89.2     5   11.3   164     16.4   826.1    0.00      83    90.2
 205   18:40   88.5     6   10.5   160     16.8   826.2    0.00      44    90.0
 205   18:50   87.8     6    9.6   156     13.7   826.3    0.00      12    89.8
 205   19:00   87.2     6   10.3   161     15.4   826.3    0.00       8    89.7
 205   19:10   86.5     6   10.0   137     15.2   826.4    0.00       4    89.5
 205   19:20   86.1     6    9.1   142     13.0   826.5    0.00       4    89.3
 205   19:30   85.3     7    9.0   142     13.6   826.7    0.00       0    89.1
 205   19:40   85.0     7    9.8   146     14.5   826.8    0.00       0    88.8
 205   19:50   84.7     7   10.0   151     14.0   826.9    0.00       0    88.7
 205   20:00   83.5     7    8.2   162     11.4   827.1    0.00       0    88.4
 205   20:10   82.1     8    7.6   162     10.1   827.2    0.00       0    88.1
 205   20:20   80.6     8    8.3   160      9.9   827.3    0.00       0    88.1
 205   20:30   80.3     8    9.1   167     12.6   827.4    0.00       0    87.8
 205   20:40   80.7     8    8.0   150     11.8   827.6    0.00       0    87.6
 205   20:50   80.3     8    8.2   166     11.2   827.6    0.00       0    87.5
 205   21:00   79.3     8    6.6   156      9.6   827.6    0.00       0    87.3
 205   21:10   78.8     9    7.1   163      9.8   827.6    0.00       0    87.1
 205   21:20   78.5     9    9.0   169     11.6   827.6    0.00       0    86.9
 205   21:30   78.0     9    9.9   173     12.9   827.6    0.00       0    86.8
 205   21:40   77.6     9    9.1   175     11.5   827.7    0.00       0    86.5
 205   21:50   77.8     9    8.1   172     11.0   827.7    0.00       0    86.2
 205   22:00   77.1    10    8.1   167     10.4   827.7    0.00       0    86.0
 205   22:10   76.9    10    7.7   166     10.3   827.8    0.00       0    85.8
 205   22:20   76.7    10    6.9   152      9.5   827.8    0.00       0    85.6
 205   22:30   76.8    10    6.9   153      9.3   827.9    0.00       0    85.4
 205   22:40   76.7    10    8.2   156     10.4   827.9    0.00       0    85.3
 205   22:50   76.9    10    7.0   175      9.3   828.1    0.00       0    85.1
 205   23:00   76.6    10    6.8   186      8.8   828.2    0.00       0    84.9
 205   23:10   76.1    11    2.6   359      6.0   828.4    0.00       0    84.7
 205   23:20   75.2    13    1.1   350      5.0   828.4    0.00       0    84.5
 205   23:30   74.3    14    1.5   326      3.4   828.5    0.00       0    84.3
 205   23:40   72.2    14    2.8   246      5.0   828.5    0.00       0    84.2
 205   23:50   70.8    14    2.4   177      4.2   828.5    0.00       0    83.9
 206    0:00   69.3    16    3.6   104      4.7   828.5    0.00       0    83.6
 206    0:10   70.0    16    3.4   130      5.8   828.5    0.00       0    83.6
 206    0:20   69.9    16    2.8   221      6.2   828.6    0.00       0    83.3
 206    0:30   69.3    16    1.9   102      3.4   828.5    0.00       0    83.2
 206    0:40   69.2    16    2.7   124      5.1   828.5    0.00       0    83.0
 206    0:50   69.8    15    3.6   121      5.4   828.5    0.00       0    82.9
 206    1:00   68.2    16    1.1   128      3.1   828.5    0.00       0    82.6
 206    1:10   68.5    18    2.5   267      4.0   828.4    0.00       0    82.4
 206    1:20   68.4    18    2.1   155      3.4   828.4    0.00       0    82.2
 206    1:30   66.4    17    3.0   116      4.2   828.4    0.00       0    82.1
 206    1:40   67.7    17    2.9   115      3.9   828.3    0.00       0    81.8
 206    1:50   66.4    18    3.4   130      4.4   828.3    0.00       0    81.7
 206    2:00   66.2    19    2.9   129      5.0   828.3    0.00       0    81.4
 206    2:10   65.5    20    3.9   122      5.3   828.3    0.00       0    81.4
 206    2:20   66.5    21    1.8   158      2.9   828.3    0.00       0    81.2
 206    2:30   66.1    21    1.9   134      3.1   828.2    0.00       0    80.9
 206    2:40   65.3    22    1.4   170      2.5   828.2    0.00       0    80.8
 206    2:50   65.9    22    0.7   163      1.4   828.2    0.00       0    80.7
 206    3:00   65.2    23    1.3   171      2.0   828.2    0.00       0    80.5
 206    3:10   66.2    22    1.6   255      2.5   828.1    0.00       0    80.2
 206    3:20   66.4    22    1.3   198      2.0   828.1    0.00       0    80.1
 206    3:30   66.3    22    1.4   100      2.0   828.2    0.00       0    79.7
 206    3:40   65.5    22    2.3   122      3.9   828.2    0.00       0    79.7
 206    3:50   64.7    23    1.5   141      2.6   828.2    0.00       0    79.6
 206    4:00   64.3    24    1.9   228      3.1   828.3    0.00       0    79.3
 206    4:10   64.5    23    1.6   131      3.5   828.4    0.00       0    79.2
 206    4:20   64.4    23    2.5   125      3.7   828.5    0.00       0    79.1
 206    4:30   63.8    24    2.2   187      3.4   828.4    0.00       0    79.0
 206    4:40   63.2    24    1.7   132      2.6   828.5    0.00       0    78.7
 206    4:50   62.7    24    2.5   132      3.5   828.5    0.00       2    78.5
 206    5:00   63.3    24    2.4   127      3.2   828.5    0.00       8    78.4
 206    5:10   64.0    24    1.9   144      2.9   828.6    0.00      22    78.3
 206    5:20   66.1    22    1.6   159      3.0   828.7    0.00      75    78.1
 206    5:30   68.2    21    1.3   161      2.3   828.7    0.00      78    78.0
 206    5:40   70.1    20    1.7   143      2.6   828.8    0.00     141    77.8
 206    5:50   73.2    18    1.0   157      2.2   828.8    0.00     174    77.6
 206    6:00   75.8    17    0.4   158      1.2   828.8    0.00     209    77.6
 206    6:10   77.9    16    0.4   150      2.2   828.8    0.00     244    77.6
 206    6:20   79.6    15    0.9   277      2.4   828.9    0.00     282    77.6
 206    6:30   78.2    16    2.9   320      4.3   828.9    0.00     339    77.5
 206    6:40   76.7    16    3.8   318      5.8   829.0    0.00     377    77.6
 206    6:50   76.9    16    5.0   325      8.3   829.0    0.00     410    77.6
 206    7:00   76.3    16    5.8   342      8.6   829.0    0.00     438    77.8
 206    7:10   76.4    16    4.9   332      8.2   829.0    0.00     470    77.9
 206    7:20   76.8    16    4.9   329      8.0   829.0    0.00     503    78.1
 206    7:30   76.7    16    6.3   318      8.3   829.0    0.00     540    78.2
 206    7:40   77.4    15    5.4   317      8.3   829.1    0.00     571    78.4
 206    7:50   77.6    15    5.7   339      8.5   829.2    0.00     601    78.5
 206    8:00   78.5    15    4.9   322     11.7   829.2    0.00     635    78.9
 206    8:10   78.6    15    5.6   337      8.6   829.2    0.00     664    79.0
 206    8:20   78.6    14    5.0   343      8.5   829.2    0.00     693    79.4
 206    8:30   79.4    14    3.5   346      6.4   829.2    0.00     722    79.7
 206    8:40   80.2    14    4.6   330      7.3   829.1    0.00     756    80.1
 206    8:50   80.6    13    3.5   342      7.3   829.1    0.00     782    80.4
 206    9:00   82.4    13    1.8   341      5.3   829.0    0.00     806    80.9
 206    9:10   84.0    12    2.8    23      5.8   828.9    0.00     830    81.3
 206    9:20   84.3    12    4.0    13      8.1   828.8    0.00     856    81.8
 206    9:30   84.8    11    5.2    95     12.2   828.7    0.00     876    82.3
 206    9:40   85.4     9    5.8   116     10.3   828.7    0.00     899    82.7
 206    9:50   85.6     9    6.9   118     15.3   828.6    0.00     922    83.2
 206   10:00   86.3     9    8.6   152     14.5   828.6    0.00     939    83.6
 206   10:10   86.1     9    7.5   114     14.8   828.5    0.00     957    84.2
 206   10:20   87.3     8    9.9   155     17.2   828.4    0.00     975    84.7
 206   10:30   87.6     8    9.4   113     18.1   828.4    0.00     987    85.2
 206   10:40   87.9     8    9.6   122     17.8   828.4    0.00    1002    85.7

Return to Goldfield, Nevada graphs page.


Western Regional Climate Center,wrcc@dri.edu